Swanville, Maine
Current Conditions -  °F | °C
As of 9:15 AM on Friday 19 Dec 2014 (Local Time) from KRKD Reporting Station
Overcast Overcast  
Wind Chill: 23°   Ceiling: 2600
Heat Index: 30°   Visibility: 10mi
Dew Point: 21°   Wind: 7mph
Humidity: 69%   Direction: 340°NNW
Pressure: 29.89"   Gusts: 18mph
Location:  44.4453°N, 69.0334°W
Report Text: KRKD 191415Z AUTO 34006G16KT 10SM OVC026 M01/M06 A2989 RMK AO1
Loading
Personal Weather Stations






























Interactive Weather Map New forecast layout! Learn more

10-Day Weather Forecast

Advertisements
Track Severe Weather on mobile